Time;durP1;ratioP1;P1;durP2;ratioP2;P2;SDS_P1;SDS_P2;PMS_P1;PMS_P2;Temp;Humidity;BMP_temperature;BMP_pressure;BME280_temperature;BME280_humidity;BME280_pressure;Samples;Min_cycle;Max_cycle;Signal;HPM_P1;HPM_P2
2021/09/23 00:00:58;;;;;;;14.77;10.50;;;;;;;;;;5120636;28;20209;-61
2021/09/23 00:06:15;;;;;;;13.13;10.43;;;;;;;;;;5107351;28;20244;-61
2021/09/23 00:08:43;;;;;;;13.13;9.77;;;;;;;;;;5120613;28;20248;-61
2021/09/23 00:11:11;;;;;;;12.13;9.83;;;;;;;;;;5120325;28;20205;-61
2021/09/23 00:13:40;;;;;;;11.63;9.50;;;;;;;;;;5120277;28;20220;-62
2021/09/23 00:16:08;;;;;;;17.13;10.13;;;;;;;;;;5120178;28;20668;-63
2021/09/23 00:18:36;;;;;;;14.27;9.57;;;;;;;;;;5120597;28;20235;-64
2021/09/23 00:21:06;;;;;;;12.63;9.10;;;;;;;;;;5120099;28;20238;-64
2021/09/23 00:23:34;;;;;;;12.20;9.80;;;;;;;;;;5119973;28;20690;-63
2021/09/23 00:26:02;;;;;;;12.77;8.90;;;;;;;;;;5120078;28;20228;-63
2021/09/23 00:28:30;;;;;;;11.97;8.97;;;;;;;;;;5120008;28;20210;-63
2021/09/23 00:30:59;;;;;;;11.83;9.50;;;;;;;;;;5120268;28;20205;-63
2021/09/23 00:33:28;;;;;;;12.20;9.13;;;;;;;;;;5120136;28;20211;-63
2021/09/23 00:35:56;;;;;;;15.07;9.80;;;;;;;;;;5119969;28;20672;-63
2021/09/23 00:38:24;;;;;;;13.40;9.67;;;;;;;;;;5119902;28;20643;-63
2021/09/23 00:40:52;;;;;;;12.30;9.70;;;;;;;;;;5119936;28;20233;-63
2021/09/23 00:43:20;;;;;;;12.33;9.37;;;;;;;;;;5119529;28;20668;-63
2021/09/23 00:45:48;;;;;;;11.13;8.83;;;;;;;;;;5119734;28;20285;-64
2021/09/23 00:48:17;;;;;;;11.97;9.33;;;;;;;;;;5119922;28;20236;-64
2021/09/23 00:50:45;;;;;;;10.70;8.90;;;;;;;;;;5119294;28;20247;-63
2021/09/23 00:53:14;;;;;;;10.20;8.37;;;;;;;;;;5119815;28;20293;-63
2021/09/23 00:55:42;;;;;;;11.47;8.73;;;;;;;;;;5119482;27;20229;-63
2021/09/23 00:58:10;;;;;;;9.97;8.33;;;;;;;;;;5119114;28;20254;-63
2021/09/23 01:00:38;;;;;;;10.07;8.47;;;;;;;;;;5119698;28;20208;-63
2021/09/23 01:03:06;;;;;;;10.30;8.70;;;;;;;;;;5119257;28;20203;-63
2021/09/23 01:05:36;;;;;;;11.83;8.27;;;;;;;;;;5118762;28;20599;-63
2021/09/23 01:08:05;;;;;;;9.83;7.40;;;;;;;;;;5119298;28;20201;-64
2021/09/23 01:10:33;;;;;;;13.27;8.33;;;;;;;;;;5119143;28;20205;-63
2021/09/23 01:13:01;;;;;;;10.50;8.00;;;;;;;;;;5119236;28;20243;-63
2021/09/23 01:15:29;;;;;;;11.43;7.90;;;;;;;;;;5118874;28;20270;-63
2021/09/23 01:17:57;;;;;;;9.47;7.43;;;;;;;;;;5119233;28;20209;-63
2021/09/23 01:20:26;;;;;;;9.13;8.03;;;;;;;;;;5119029;28;20227;-63
2021/09/23 01:22:55;;;;;;;13.07;10.93;;;;;;;;;;5119052;28;20250;-62
2021/09/23 01:25:24;;;;;;;10.40;8.30;;;;;;;;;;5119051;28;20289;-62
2021/09/23 01:27:52;;;;;;;12.03;8.53;;;;;;;;;;5118823;28;20239;-61
2021/09/23 01:30:20;;;;;;;11.67;8.00;;;;;;;;;;5119147;28;20205;-61
2021/09/23 01:32:48;;;;;;;11.93;8.37;;;;;;;;;;5115935;28;20325;-61
2021/09/23 01:35:16;;;;;;;10.63;9.03;;;;;;;;;;5118722;27;20251;-62
2021/09/23 01:37:45;;;;;;;12.10;9.10;;;;;;;;;;5118693;28;20767;-60
2021/09/23 01:40:14;;;;;;;10.17;8.07;;;;;;;;;;5118782;28;20230;-62
2021/09/23 01:42:43;;;;;;;11.47;8.37;;;;;;;;;;5118521;28;20205;-63
2021/09/23 01:45:12;;;;;;;11.57;8.40;;;;;;;;;;5118302;28;20285;-63
2021/09/23 01:47:40;;;;;;;10.27;7.87;;;;;;;;;;5118296;28;20545;-63
2021/09/23 01:50:08;;;;;;;11.50;8.57;;;;;;;;;;5118379;28;20223;-63
2021/09/23 01:52:37;;;;;;;10.73;8.50;;;;;;;;;;5118375;28;20615;-63
2021/09/23 01:55:05;;;;;;;10.87;8.33;;;;;;;;;;5118379;28;20215;-62
2021/09/23 01:57:35;;;;;;;12.30;8.23;;;;;;;;;;5118077;28;20212;-61
2021/09/23 02:00:03;;;;;;;9.80;8.57;;;;;;;;;;5118322;28;20211;-61
2021/09/23 02:02:31;;;;;;;12.40;8.00;;;;;;;;;;5117685;28;20249;-61
2021/09/23 02:05:00;;;;;;;11.10;8.50;;;;;;;;;;5118589;28;20260;-63
2021/09/23 02:07:28;;;;;;;11.17;8.20;;;;;;;;;;5118274;28;20281;-63
2021/09/23 02:09:56;;;;;;;11.17;8.10;;;;;;;;;;5118551;28;20236;-63
2021/09/23 02:12:24;;;;;;;11.17;8.27;;;;;;;;;;5118131;28;20240;-63
2021/09/23 02:14:53;;;;;;;10.17;8.23;;;;;;;;;;5117962;28;20696;-61
2021/09/23 02:17:21;;;;;;;11.00;8.63;;;;;;;;;;5118396;28;20234;-60
2021/09/23 02:19:49;;;;;;;12.80;9.33;;;;;;;;;;5118301;28;20637;-60
2021/09/23 02:22:18;;;;;;;16.37;9.33;;;;;;;;;;5117940;28;20212;-61
2021/09/23 02:24:46;;;;;;;13.57;8.93;;;;;;;;;;5117927;28;20217;-61
2021/09/23 02:27:14;;;;;;;15.13;9.23;;;;;;;;;;5118020;28;20243;-63
2021/09/23 02:29:42;;;;;;;14.20;8.83;;;;;;;;;;5117815;28;20216;-60
2021/09/23 02:32:12;;;;;;;12.27;9.23;;;;;;;;;;5118092;28;20254;-62
2021/09/23 02:34:40;;;;;;;11.20;9.03;;;;;;;;;;5118034;28;20256;-61
2021/09/23 02:37:09;;;;;;;13.30;9.37;;;;;;;;;;5118357;28;20243;-62
2021/09/23 02:39:37;;;;;;;12.27;8.63;;;;;;;;;;5118096;28;20208;-61
2021/09/23 02:42:05;;;;;;;11.23;9.00;;;;;;;;;;5118240;28;20204;-62
2021/09/23 02:44:33;;;;;;;10.30;8.57;;;;;;;;;;5117482;28;20699;-62
2021/09/23 02:47:01;;;;;;;12.90;8.90;;;;;;;;;;5117955;28;20264;-61
2021/09/23 02:49:30;;;;;;;13.17;9.03;;;;;;;;;;5117677;28;20255;-61
2021/09/23 02:51:59;;;;;;;10.03;8.53;;;;;;;;;;5118185;28;20236;-61
2021/09/23 02:54:27;;;;;;;12.30;8.80;;;;;;;;;;5117887;28;20225;-61
2021/09/23 02:56:55;;;;;;;10.20;7.97;;;;;;;;;;5117963;28;20204;-61
2021/09/23 02:59:23;;;;;;;11.20;8.50;;;;;;;;;;5117352;28;20659;-61
2021/09/23 03:01:51;;;;;;;10.97;8.83;;;;;;;;;;5117850;28;20204;-61
2021/09/23 03:04:19;;;;;;;11.20;9.10;;;;;;;;;;5117520;28;20278;-62
2021/09/23 03:06:49;;;;;;;15.63;9.63;;;;;;;;;;5117484;28;20236;-62
2021/09/23 03:09:17;;;;;;;11.00;8.57;;;;;;;;;;5117984;28;20262;-62
2021/09/23 03:11:45;;;;;;;13.10;9.30;;;;;;;;;;5117660;28;20265;-61
2021/09/23 03:14:13;;;;;;;12.20;9.53;;;;;;;;;;5121320;28;20275;-61
2021/09/23 03:16:41;;;;;;;12.13;9.63;;;;;;;;;;5121386;28;20197;-60
2021/09/23 03:19:09;;;;;;;12.23;8.90;;;;;;;;;;5121774;28;20201;-60
2021/09/23 03:21:38;;;;;;;13.93;8.70;;;;;;;;;;5121324;27;20612;-60
2021/09/23 03:24:07;;;;;;;12.87;9.03;;;;;;;;;;5121508;28;20254;-60
2021/09/23 03:26:35;;;;;;;15.00;8.77;;;;;;;;;;5121093;28;20760;-60
2021/09/23 03:29:06;;;;;;;13.30;8.63;;;;;;;;;;5121320;28;20204;-61
2021/09/23 03:31:35;;;;;;;11.60;8.57;;;;;;;;;;5121121;28;20227;-61
2021/09/23 03:34:03;;;;;;;11.97;8.97;;;;;;;;;;5121421;27;20248;-61
2021/09/23 03:36:31;;;;;;;12.87;8.70;;;;;;;;;;5121400;28;20197;-61
2021/09/23 03:39:00;;;;;;;15.17;8.50;;;;;;;;;;5121159;28;20205;-60
2021/09/23 03:41:30;;;;;;;15.33;8.23;;;;;;;;;;5120834;28;20235;-61
2021/09/23 03:43:58;;;;;;;13.73;9.20;;;;;;;;;;5120716;27;20225;-61
2021/09/23 03:46:26;;;;;;;12.77;8.47;;;;;;;;;;5120740;28;20228;-61
2021/09/23 03:48:54;;;;;;;11.47;8.83;;;;;;;;;;5120863;28;20217;-61
2021/09/23 03:51:22;;;;;;;13.97;8.17;;;;;;;;;;5120895;28;20722;-61
2021/09/23 03:53:50;;;;;;;12.67;8.27;;;;;;;;;;5121021;28;20260;-62
2021/09/23 03:56:18;;;;;;;15.40;9.10;;;;;;;;;;5120796;28;20575;-62
2021/09/23 03:58:48;;;;;;;13.27;8.20;;;;;;;;;;5120378;28;20642;-61
2021/09/23 04:01:16;;;;;;;14.47;8.60;;;;;;;;;;5120386;28;20254;-62
2021/09/23 04:03:45;;;;;;;13.60;8.23;;;;;;;;;;5120427;28;20706;-62
2021/09/23 04:06:13;;;;;;;10.43;8.37;;;;;;;;;;5120669;28;20275;-62
2021/09/23 04:08:41;;;;;;;11.27;8.13;;;;;;;;;;5120405;28;20239;-62
2021/09/23 04:11:09;;;;;;;13.77;9.63;;;;;;;;;;5120575;28;20207;-62
2021/09/23 04:13:37;;;;;;;11.37;9.17;;;;;;;;;;5119859;28;20205;-61
2021/09/23 04:16:07;;;;;;;10.10;8.67;;;;;;;;;;5120497;28;20253;-62
2021/09/23 04:18:35;;;;;;;10.00;7.70;;;;;;;;;;5120507;28;20217;-62
2021/09/23 04:21:03;;;;;;;11.87;8.23;;;;;;;;;;5120372;28;20236;-62
2021/09/23 04:23:31;;;;;;;11.50;9.40;;;;;;;;;;5120247;28;20217;-62
2021/09/23 04:25:59;;;;;;;10.50;8.03;;;;;;;;;;5119836;28;20228;-62
2021/09/23 04:28:27;;;;;;;14.43;7.90;;;;;;;;;;5119761;28;20213;-62
2021/09/23 04:30:55;;;;;;;13.53;8.70;;;;;;;;;;5120271;28;20205;-62
2021/09/23 04:33:25;;;;;;;11.33;8.27;;;;;;;;;;5120213;28;20215;-62
2021/09/23 04:35:54;;;;;;;14.67;7.90;;;;;;;;;;5120227;28;20208;-62
2021/09/23 04:38:22;;;;;;;11.67;8.17;;;;;;;;;;5120121;28;20208;-62
2021/09/23 04:40:50;;;;;;;12.03;7.93;;;;;;;;;;5119979;27;20602;-62
2021/09/23 04:43:18;;;;;;;11.00;7.57;;;;;;;;;;5119660;28;20204;-62
2021/09/23 04:45:47;;;;;;;15.60;9.47;;;;;;;;;;5119864;28;20274;-62
2021/09/23 04:48:15;;;;;;;10.10;8.10;;;;;;;;;;5119937;28;20274;-62
2021/09/23 04:50:44;;;;;;;11.83;8.57;;;;;;;;;;5119734;28;20209;-62
2021/09/23 04:53:12;;;;;;;12.60;8.90;;;;;;;;;;5119941;27;20239;-62
2021/09/23 04:55:41;;;;;;;13.47;8.93;;;;;;;;;;5119804;28;20228;-62
2021/09/23 04:58:09;;;;;;;11.43;8.40;;;;;;;;;;5119499;28;20201;-62
2021/09/23 05:00:37;;;;;;;13.33;9.40;;;;;;;;;;5119281;28;20209;-62
2021/09/23 05:03:05;;;;;;;14.33;8.63;;;;;;;;;;5119471;28;20193;-62
2021/09/23 05:05:33;;;;;;;11.57;8.47;;;;;;;;;;5119033;28;20726;-63
2021/09/23 05:08:03;;;;;;;15.27;8.27;;;;;;;;;;5119160;28;20225;-62
2021/09/23 05:10:34;;;;;;;10.73;8.63;;;;;;;;;;5119619;28;20200;-62
2021/09/23 05:13:02;;;;;;;13.50;8.17;;;;;;;;;;5118987;28;20683;-62
2021/09/23 05:15:30;;;;;;;9.70;8.30;;;;;;;;;;5118931;28;20228;-61
2021/09/23 05:17:58;;;;;;;13.20;8.30;;;;;;;;;;5119205;28;20268;-62
2021/09/23 05:20:26;;;;;;;12.43;8.10;;;;;;;;;;5119262;28;20219;-62
2021/09/23 05:22:54;;;;;;;12.57;7.53;;;;;;;;;;5118947;28;20640;-62
2021/09/23 05:25:24;;;;;;;12.03;8.53;;;;;;;;;;5119049;28;20220;-62
2021/09/23 05:27:52;;;;;;;16.13;11.53;;;;;;;;;;5118729;28;20232;-62
2021/09/23 05:30:21;;;;;;;19.57;13.70;;;;;;;;;;5118797;28;20232;-62
2021/09/23 05:32:49;;;;;;;25.80;14.67;;;;;;;;;;5118683;28;20255;-62
2021/09/23 05:35:17;;;;;;;20.70;14.30;;;;;;;;;;5118756;28;20224;-62
2021/09/23 05:37:45;;;;;;;24.77;14.43;;;;;;;;;;5118430;28;20213;-62
2021/09/23 05:40:14;;;;;;;24.30;14.30;;;;;;;;;;5118667;28;20637;-62
2021/09/23 05:42:43;;;;;;;21.70;14.20;;;;;;;;;;5118648;27;20212;-62
2021/09/23 05:45:12;;;;;;;17.13;12.30;;;;;;;;;;5119020;28;20256;-62
2021/09/23 05:47:40;;;;;;;18.07;12.37;;;;;;;;;;5118515;28;20316;-62
2021/09/23 05:50:09;;;;;;;21.30;12.73;;;;;;;;;;5118345;28;20240;-62
2021/09/23 05:52:38;;;;;;;21.90;11.50;;;;;;;;;;5118596;28;20243;-62
2021/09/23 05:55:06;;;;;;;17.37;11.13;;;;;;;;;;5118351;28;20257;-61
2021/09/23 05:57:34;;;;;;;15.03;11.00;;;;;;;;;;5117887;27;20232;-62
2021/09/23 06:00:06;;;;;;;15.07;9.80;;;;;;;;;;5118238;28;20205;-62
2021/09/23 06:02:34;;;;;;;12.97;8.90;;;;;;;;;;5118047;28;20204;-62
2021/09/23 06:05:03;;;;;;;17.20;9.90;;;;;;;;;;5118285;28;20225;-62
2021/09/23 06:07:31;;;;;;;11.77;9.33;;;;;;;;;;5117908;28;20260;-62
2021/09/23 06:09:59;;;;;;;15.37;10.07;;;;;;;;;;5118307;28;20237;-62
2021/09/23 06:12:30;;;;;;;11.97;9.57;;;;;;;;;;5117832;28;20623;-62
2021/09/23 06:14:58;;;;;;;16.23;10.20;;;;;;;;;;5117878;28;20224;-62
2021/09/23 06:17:28;;;;;;;15.27;9.93;;;;;;;;;;5118204;28;20196;-62
2021/09/23 06:19:56;;;;;;;15.10;10.33;;;;;;;;;;5117985;28;20233;-62
2021/09/23 06:22:24;;;;;;;21.27;11.27;;;;;;;;;;5118262;28;20225;-62
2021/09/23 06:24:52;;;;;;;15.17;10.60;;;;;;;;;;5117778;28;20228;-62
2021/09/23 06:27:20;;;;;;;18.23;10.70;;;;;;;;;;5117886;28;20655;-62
2021/09/23 06:29:49;;;;;;;17.00;11.30;;;;;;;;;;5118029;28;20204;-62
2021/09/23 06:32:17;;;;;;;20.80;11.60;;;;;;;;;;5118359;28;20233;-62
2021/09/23 06:34:47;;;;;;;20.23;11.77;;;;;;;;;;5118054;28;20287;-62
2021/09/23 06:37:35;;;;;;;13.87;10.20;;;;;;;;;;5117880;28;20732;-62
2021/09/23 06:40:03;;;;;;;16.30;10.30;;;;;;;;;;5118215;28;20240;-62
2021/09/23 06:42:31;;;;;;;15.23;10.10;;;;;;;;;;5117910;28;20244;-62
2021/09/23 06:44:59;;;;;;;14.23;10.27;;;;;;;;;;5117705;28;20714;-62
2021/09/23 06:47:27;;;;;;;20.63;10.17;;;;;;;;;;5118635;28;20262;-62
2021/09/23 06:49:56;;;;;;;13.33;9.60;;;;;;;;;;5122204;28;20212;-62
2021/09/23 06:52:25;;;;;;;13.27;10.03;;;;;;;;;;5122256;28;20232;-62
2021/09/23 06:54:54;;;;;;;10.40;8.50;;;;;;;;;;5121895;28;20586;-61
2021/09/23 06:57:22;;;;;;;13.33;9.50;;;;;;;;;;5121727;28;20204;-62
2021/09/23 06:59:50;;;;;;;14.63;10.27;;;;;;;;;;5121697;28;20230;-62
2021/09/23 07:02:18;;;;;;;12.80;9.20;;;;;;;;;;5121600;28;20216;-62
2021/09/23 07:04:47;;;;;;;16.00;9.97;;;;;;;;;;5122000;28;20235;-62
2021/09/23 07:07:16;;;;;;;14.30;9.40;;;;;;;;;;5121507;28;20237;-62
2021/09/23 07:09:45;;;;;;;11.97;9.40;;;;;;;;;;5122002;28;20266;-62
2021/09/23 07:12:13;;;;;;;13.30;9.80;;;;;;;;;;5121829;28;20242;-61
2021/09/23 07:14:46;;;;;;;16.77;10.13;;;;;;;;;;5121759;28;20220;-62
2021/09/23 07:17:14;;;;;;;13.60;9.87;;;;;;;;;;5121591;28;20205;-62
2021/09/23 07:19:42;;;;;;;15.83;10.93;;;;;;;;;;5121715;28;20239;-62
2021/09/23 07:22:10;;;;;;;14.90;9.87;;;;;;;;;;5121601;28;20209;-62
2021/09/23 07:24:40;;;;;;;14.23;10.37;;;;;;;;;;5121505;28;20220;-62
2021/09/23 07:27:08;;;;;;;16.03;10.03;;;;;;;;;;5121246;28;20227;-62
2021/09/23 07:29:36;;;;;;;12.40;9.30;;;;;;;;;;5120810;28;20632;-62
2021/09/23 07:32:05;;;;;;;15.87;10.67;;;;;;;;;;5121146;28;20216;-62
2021/09/23 07:34:33;;;;;;;15.33;10.17;;;;;;;;;;5121303;28;20221;-62
2021/09/23 07:37:01;;;;;;;17.50;9.67;;;;;;;;;;5121215;28;20204;-62
2021/09/23 07:39:29;;;;;;;15.57;9.53;;;;;;;;;;5121115;28;20223;-62
2021/09/23 07:41:58;;;;;;;12.90;10.80;;;;;;;;;;5121329;28;20213;-62
2021/09/23 07:44:26;;;;;;;17.73;10.57;;;;;;;;;;5120693;27;20228;-62
2021/09/23 07:46:59;;;;;;;16.70;10.20;;;;;;;;;;5121060;28;20244;-62
2021/09/23 07:49:27;;;;;;;15.87;9.63;;;;;;;;;;5121065;28;20221;-62
2021/09/23 07:51:55;;;;;;;16.73;10.23;;;;;;;;;;5120968;28;20204;-62
2021/09/23 07:54:23;;;;;;;15.40;10.50;;;;;;;;;;5120799;28;20224;-62
2021/09/23 07:56:51;;;;;;;18.40;10.87;;;;;;;;;;5120889;28;20232;-62
2021/09/23 07:59:21;;;;;;;22.10;12.67;;;;;;;;;;5119562;28;20204;-61
2021/09/23 08:01:49;;;;;;;14.37;10.23;;;;;;;;;;5120537;28;20676;-61
2021/09/23 08:04:17;;;;;;;21.17;11.90;;;;;;;;;;5120707;28;20221;-61
2021/09/23 08:06:45;;;;;;;15.87;9.93;;;;;;;;;;5120138;28;20259;-61
2021/09/23 08:09:13;;;;;;;19.37;10.97;;;;;;;;;;5120349;28;20664;-61
2021/09/23 08:11:41;;;;;;;20.43;11.70;;;;;;;;;;5120758;28;20208;-61
2021/09/23 08:14:10;;;;;;;17.73;12.00;;;;;;;;;;5119943;28;20286;-62
2021/09/23 08:16:39;;;;;;;17.07;11.97;;;;;;;;;;5120357;28;20205;-63
2021/09/23 08:19:07;;;;;;;19.73;12.30;;;;;;;;;;5120558;28;20201;-64
2021/09/23 08:21:35;;;;;;;28.20;13.20;;;;;;;;;;5120493;28;20213;-63
2021/09/23 08:24:03;;;;;;;24.87;13.73;;;;;;;;;;5119980;28;20221;-64
2021/09/23 08:26:31;;;;;;;21.17;13.43;;;;;;;;;;5120320;28;20231;-63
2021/09/23 08:28:59;;;;;;;16.93;12.57;;;;;;;;;;5119858;28;20263;-63
2021/09/23 08:31:28;;;;;;;16.67;12.67;;;;;;;;;;5119845;28;20209;-63
2021/09/23 08:34:03;;;;;;;23.80;13.73;;;;;;;;;;5120034;28;20320;-63
2021/09/23 08:36:32;;;;;;;22.03;14.27;;;;;;;;;;5119955;28;20209;-63
2021/09/23 08:39:01;;;;;;;23.37;13.10;;;;;;;;;;5120091;27;20209;-62
2021/09/23 08:41:29;;;;;;;25.73;14.23;;;;;;;;;;5120141;28;20211;-63
2021/09/23 08:43:59;;;;;;;23.47;14.33;;;;;;;;;;5119631;28;20229;-63
2021/09/23 08:46:31;;;;;;;19.20;12.67;;;;;;;;;;5119787;28;20230;-63
2021/09/23 08:48:59;;;;;;;22.00;12.77;;;;;;;;;;5119674;28;20230;-63
2021/09/23 08:51:29;;;;;;;21.47;12.90;;;;;;;;;;5119789;28;20250;-62
2021/09/23 08:53:57;;;;;;;24.83;14.03;;;;;;;;;;5119777;28;20228;-62
2021/09/23 08:56:25;;;;;;;29.37;13.53;;;;;;;;;;5119841;27;20211;-61
2021/09/23 08:58:54;;;;;;;19.90;13.53;;;;;;;;;;5119054;28;20204;-62
2021/09/23 09:01:23;;;;;;;22.87;11.87;;;;;;;;;;5119605;28;20201;-62
2021/09/23 09:03:58;;;;;;;23.73;12.00;;;;;;;;;;5119229;28;20228;-62
2021/09/23 09:06:27;;;;;;;16.20;10.83;;;;;;;;;;5119355;28;20232;-62
2021/09/23 09:08:56;;;;;;;16.37;10.90;;;;;;;;;;5119118;28;20316;-64
2021/09/23 09:11:25;;;;;;;19.10;11.33;;;;;;;;;;5119396;28;20208;-64
2021/09/23 09:13:53;;;;;;;21.13;11.47;;;;;;;;;;5118886;28;20229;-63
2021/09/23 09:16:23;;;;;;;21.33;11.20;;;;;;;;;;5119311;28;20232;-62
2021/09/23 09:18:53;;;;;;;14.87;9.40;;;;;;;;;;5119047;28;20286;-62
2021/09/23 09:21:22;;;;;;;14.80;10.23;;;;;;;;;;5119073;28;20656;-63
2021/09/23 09:23:53;;;;;;;17.83;10.47;;;;;;;;;;5119187;28;20221;-63
2021/09/23 09:26:27;;;;;;;17.87;9.83;;;;;;;;;;5111060;28;20633;-63
2021/09/23 09:28:57;;;;;;;14.93;9.97;;;;;;;;;;5118795;28;20225;-64
2021/09/23 09:31:25;;;;;;;16.60;9.73;;;;;;;;;;5118969;28;20236;-63
2021/09/23 09:33:54;;;;;;;14.03;9.73;;;;;;;;;;5119219;28;20264;-63
2021/09/23 09:36:27;;;;;;;13.43;9.00;;;;;;;;;;5119099;28;20258;-63
2021/09/23 09:38:56;;;;;;;13.13;9.03;;;;;;;;;;5119070;28;20204;-63
2021/09/23 09:41:27;;;;;;;12.13;9.03;;;;;;;;;;5118801;28;20212;-63
2021/09/23 09:43:56;;;;;;;14.23;9.00;;;;;;;;;;5118710;28;20225;-61
2021/09/23 09:46:25;;;;;;;11.27;8.37;;;;;;;;;;5118368;28;20234;-63
2021/09/23 09:48:53;;;;;;;10.47;7.50;;;;;;;;;;5118707;28;20236;-61
2021/09/23 09:51:22;;;;;;;13.43;9.07;;;;;;;;;;5135172;27;20638;-61
2021/09/23 09:53:57;;;;;;;10.10;8.73;;;;;;;;;;5138685;27;20662;-62
2021/09/23 09:56:27;;;;;;;12.53;8.10;;;;;;;;;;5139028;27;20294;-61
2021/09/23 09:59:10;;;;;;;11.33;8.10;;;;;;;;;;5125180;27;20197;-62
2021/09/23 10:01:38;;;;;;;10.43;7.47;;;;;;;;;;5118314;28;20254;-63
2021/09/23 10:04:07;;;;;;;11.43;8.20;;;;;;;;;;5118533;28;20274;-63
2021/09/23 10:06:35;;;;;;;11.83;8.57;;;;;;;;;;5118159;28;20282;-63
2021/09/23 10:09:03;;;;;;;12.23;8.07;;;;;;;;;;5118203;28;20301;-63
2021/09/23 10:11:33;;;;;;;10.60;8.20;;;;;;;;;;5118535;28;20261;-63
2021/09/23 10:14:02;;;;;;;17.60;8.17;;;;;;;;;;5117996;28;20228;-63
2021/09/23 10:16:31;;;;;;;14.20;8.17;;;;;;;;;;5118241;28;20243;-62
2021/09/23 10:18:59;;;;;;;10.90;8.10;;;;;;;;;;5118048;28;20236;-63
2021/09/23 10:21:27;;;;;;;13.80;7.77;;;;;;;;;;5118322;28;20204;-62
2021/09/23 10:23:56;;;;;;;12.37;7.57;;;;;;;;;;5117813;28;20224;-63
2021/09/23 10:26:26;;;;;;;10.77;7.93;;;;;;;;;;5118024;28;20208;-63
2021/09/23 10:28:56;;;;;;;10.53;8.00;;;;;;;;;;5117429;28;20213;-63
2021/09/23 10:31:30;;;;;;;11.43;7.17;;;;;;;;;;5117800;28;20222;-62
2021/09/23 10:33:59;;;;;;;7.63;6.57;;;;;;;;;;5117993;28;20606;-63
2021/09/23 10:36:28;;;;;;;11.13;8.13;;;;;;;;;;5118363;28;20212;-62
2021/09/23 10:38:57;;;;;;;10.37;7.73;;;;;;;;;;5118185;28;20240;-62
2021/09/23 10:41:26;;;;;;;10.03;7.63;;;;;;;;;;5118046;28;20235;-63
2021/09/23 10:43:56;;;;;;;11.90;8.57;;;;;;;;;;5117913;28;20221;-63
2021/09/23 10:46:25;;;;;;;10.47;7.40;;;;;;;;;;5117652;28;20204;-63
2021/09/23 10:48:54;;;;;;;10.63;6.67;;;;;;;;;;5117905;28;20204;-63
2021/09/23 10:51:23;;;;;;;9.10;7.37;;;;;;;;;;5116556;28;20228;-62
2021/09/23 10:53:52;;;;;;;10.47;8.13;;;;;;;;;;5117543;28;20229;-63
2021/09/23 10:56:21;;;;;;;11.90;7.67;;;;;;;;;;5118074;28;20240;-63
2021/09/23 10:58:49;;;;;;;8.93;7.30;;;;;;;;;;5117369;28;20241;-63
2021/09/23 11:01:23;;;;;;;9.40;6.30;;;;;;;;;;5117647;28;20604;-62
2021/09/23 11:03:52;;;;;;;8.93;6.93;;;;;;;;;;5117768;28;20246;-63
2021/09/23 11:06:20;;;;;;;9.67;7.17;;;;;;;;;;5117621;28;20732;-63
2021/09/23 11:08:49;;;;;;;7.70;6.53;;;;;;;;;;5117730;28;20216;-62
2021/09/23 11:11:17;;;;;;;9.97;7.27;;;;;;;;;;5117706;28;20227;-63
2021/09/23 11:13:45;;;;;;;12.13;6.97;;;;;;;;;;5117116;28;20205;-62
2021/09/23 11:16:13;;;;;;;9.43;7.63;;;;;;;;;;5117550;28;20232;-63
2021/09/23 11:18:44;;;;;;;8.67;6.30;;;;;;;;;;5117363;28;20244;-63
2021/09/23 11:21:14;;;;;;;11.30;7.50;;;;;;;;;;5117861;28;20258;-63
2021/09/23 11:23:42;;;;;;;8.83;6.00;;;;;;;;;;5117341;28;20266;-63
2021/09/23 11:26:10;;;;;;;7.37;6.43;;;;;;;;;;5117669;28;20205;-63
2021/09/23 11:28:39;;;;;;;6.70;6.07;;;;;;;;;;5117181;28;20208;-63
2021/09/23 11:31:07;;;;;;;6.27;5.67;;;;;;;;;;5117362;28;20229;-63
2021/09/23 11:33:41;;;;;;;10.07;6.57;;;;;;;;;;5118507;28;20204;-62
2021/09/23 11:36:13;;;;;;;7.43;6.63;;;;;;;;;;5121060;28;20204;-63
2021/09/23 11:38:41;;;;;;;9.77;7.00;;;;;;;;;;5121551;28;20205;-63
2021/09/23 11:41:09;;;;;;;10.43;7.83;;;;;;;;;;5121016;28;20250;-63
2021/09/23 11:43:40;;;;;;;8.30;7.43;;;;;;;;;;5120795;28;20209;-63
2021/09/23 11:46:08;;;;;;;8.80;6.63;;;;;;;;;;5120928;27;20208;-62
2021/09/23 11:48:36;;;;;;;11.97;7.13;;;;;;;;;;5121007;27;20212;-63
2021/09/23 11:51:05;;;;;;;10.13;6.10;;;;;;;;;;5120695;28;20236;-62
2021/09/23 11:53:37;;;;;;;7.77;6.07;;;;;;;;;;5120703;28;20271;-62
2021/09/23 11:56:06;;;;;;;6.23;5.63;;;;;;;;;;5120970;28;20620;-62
2021/09/23 11:58:35;;;;;;;7.23;6.27;;;;;;;;;;5120582;28;20204;-61
2021/09/23 12:01:03;;;;;;;9.30;6.43;;;;;;;;;;5120544;27;20205;-62
2021/09/23 12:03:36;;;;;;;7.00;5.97;;;;;;;;;;5120834;28;20264;-62
2021/09/23 12:06:08;;;;;;;9.50;6.27;;;;;;;;;;5120293;28;20240;-62
2021/09/23 12:08:37;;;;;;;6.23;5.63;;;;;;;;;;5120525;28;20239;-62
2021/09/23 12:11:06;;;;;;;7.33;5.13;;;;;;;;;;5120648;27;20229;-62
2021/09/23 12:13:40;;;;;;;6.00;5.40;;;;;;;;;;5120325;28;20228;-61
2021/09/23 12:16:10;;;;;;;7.10;5.50;;;;;;;;;;5120614;28;20257;-60
2021/09/23 12:18:39;;;;;;;9.30;6.13;;;;;;;;;;5120131;28;20206;-61
2021/09/23 12:21:08;;;;;;;8.07;5.97;;;;;;;;;;5120329;28;20292;-62
2021/09/23 12:23:39;;;;;;;7.50;5.73;;;;;;;;;;5120305;28;20213;-61
2021/09/23 12:26:21;;;;;;;7.47;5.60;;;;;;;;;;5120117;28;20244;-60
2021/09/23 12:28:54;;;;;;;7.63;6.70;;;;;;;;;;5119849;28;20207;-61
2021/09/23 12:31:29;;;;;;;8.97;6.10;;;;;;;;;;5119807;28;20256;-63
2021/09/23 12:33:58;;;;;;;7.40;5.77;;;;;;;;;;5120195;28;20220;-63
2021/09/23 12:36:27;;;;;;;6.53;5.90;;;;;;;;;;5120266;27;20208;-63
2021/09/23 12:39:19;;;;;;;7.80;6.57;;;;;;;;;;5120065;28;20239;-63
2021/09/23 12:42:05;;;;;;;9.07;6.03;;;;;;;;;;5104852;27;20204;-63
2021/09/23 12:44:34;;;;;;;8.37;5.93;;;;;;;;;;5119795;27;20225;-63
2021/09/23 12:47:08;;;;;;;8.23;6.77;;;;;;;;;;5119620;28;20288;-62
2021/09/23 12:49:37;;;;;;;7.37;6.13;;;;;;;;;;5119412;28;20291;-62
2021/09/23 12:52:13;;;;;;;9.37;6.50;;;;;;;;;;5119667;28;20281;-63
2021/09/23 12:54:51;;;;;;;7.73;6.47;;;;;;;;;;5119732;28;20220;-61
2021/09/23 12:57:38;;;;;;;9.60;6.70;;;;;;;;;;5119061;27;20320;-63
2021/09/23 13:00:10;;;;;;;10.37;6.03;;;;;;;;;;5119774;28;20244;-61
2021/09/23 13:02:39;;;;;;;7.83;6.63;;;;;;;;;;5119384;28;20197;-61
2021/09/23 13:05:09;;;;;;;6.13;5.53;;;;;;;;;;5119641;28;20236;-63
2021/09/23 13:07:45;;;;;;;7.30;6.60;;;;;;;;;;5119130;27;20243;-63
2021/09/23 13:10:14;;;;;;;6.47;5.83;;;;;;;;;;5119453;28;20212;-61
2021/09/23 13:12:44;;;;;;;9.00;5.93;;;;;;;;;;5119273;27;20228;-61
2021/09/23 13:15:16;;;;;;;9.20;6.00;;;;;;;;;;5119176;28;20832;-61
2021/09/23 13:17:55;;;;;;;6.87;6.17;;;;;;;;;;5119106;28;20243;-60
2021/09/23 13:20:23;;;;;;;8.57;6.30;;;;;;;;;;5119356;27;20207;-62
2021/09/23 13:22:51;;;;;;;6.37;5.60;;;;;;;;;;5119067;28;20606;-60
2021/09/23 13:25:19;;;;;;;12.27;6.00;;;;;;;;;;5119228;28;20278;-61
2021/09/23 13:27:49;;;;;;;10.27;5.63;;;;;;;;;;5119058;28;20268;-61
2021/09/23 13:30:17;;;;;;;10.40;6.53;;;;;;;;;;5119136;28;20232;-61
2021/09/23 13:32:46;;;;;;;5.57;4.97;;;;;;;;;;5118934;28;20227;-61
2021/09/23 13:35:14;;;;;;;6.13;5.53;;;;;;;;;;5119045;28;20231;-61
2021/09/23 13:37:43;;;;;;;9.13;5.20;;;;;;;;;;5118928;28;20238;-61
2021/09/23 13:40:15;;;;;;;5.70;5.20;;;;;;;;;;5118717;28;20252;-61
2021/09/23 13:42:43;;;;;;;6.13;5.00;;;;;;;;;;5118303;28;20204;-63
2021/09/23 13:45:12;;;;;;;5.40;4.90;;;;;;;;;;5118566;28;20624;-61
2021/09/23 13:47:40;;;;;;;6.93;5.50;;;;;;;;;;5118447;28;20210;-61
2021/09/23 13:50:09;;;;;;;7.13;4.90;;;;;;;;;;5118510;28;20234;-60
2021/09/23 13:52:37;;;;;;;7.30;5.70;;;;;;;;;;5114944;28;20232;-61
2021/09/23 13:55:06;;;;;;;5.47;4.97;;;;;;;;;;5118466;28;20223;-62
2021/09/23 13:57:34;;;;;;;5.87;5.27;;;;;;;;;;5117045;28;20207;-62
2021/09/23 14:00:04;;;;;;;5.27;4.73;;;;;;;;;;5108273;28;20244;-62
2021/09/23 14:02:34;;;;;;;5.70;4.93;;;;;;;;;;5117905;28;20193;-62
2021/09/23 14:05:02;;;;;;;7.77;4.97;;;;;;;;;;5118250;28;20604;-62
2021/09/23 14:07:30;;;;;;;6.10;4.63;;;;;;;;;;5118131;28;20278;-62
2021/09/23 14:09:59;;;;;;;7.07;5.30;;;;;;;;;;5118177;28;20659;-61
2021/09/23 14:12:27;;;;;;;5.57;4.43;;;;;;;;;;5117825;28;20220;-62
2021/09/23 14:14:55;;;;;;;5.20;4.70;;;;;;;;;;5118194;28;20304;-62
2021/09/23 14:17:23;;;;;;;6.10;5.47;;;;;;;;;;5117927;28;20262;-62
2021/09/23 14:19:53;;;;;;;6.87;4.87;;;;;;;;;;5118317;28;20204;-62
2021/09/23 14:22:21;;;;;;;5.23;4.73;;;;;;;;;;5117822;28;20237;-62
2021/09/23 14:24:49;;;;;;;7.87;5.60;;;;;;;;;;5117998;28;20282;-63
2021/09/23 14:27:18;;;;;;;5.27;4.77;;;;;;;;;;5117803;28;20204;-62
2021/09/23 14:29:46;;;;;;;5.77;4.77;;;;;;;;;;5117886;28;20710;-62
2021/09/23 14:32:14;;;;;;;5.27;4.77;;;;;;;;;;5117681;28;20237;-62
2021/09/23 14:34:42;;;;;;;6.63;5.10;;;;;;;;;;5117726;28;20629;-62
2021/09/23 14:37:12;;;;;;;5.37;4.83;;;;;;;;;;5117993;28;20605;-62
2021/09/23 14:39:40;;;;;;;5.80;5.00;;;;;;;;;;5118246;28;20234;-62
2021/09/23 14:42:08;;;;;;;6.20;5.60;;;;;;;;;;5117585;28;20204;-61
2021/09/23 14:44:36;;;;;;;5.53;5.00;;;;;;;;;;5117419;28;20697;-63